createdAt,value
2022-11-20T00:01:37.548Z,10.20
2022-11-20T00:06:40.334Z,9.00
2022-11-20T00:11:43.086Z,9.40
2022-11-20T00:16:47.318Z,10.80
2022-11-20T00:21:52.283Z,9.20
2022-11-20T00:26:55.166Z,10.20
2022-11-20T00:31:59.537Z,10.60
2022-11-20T00:37:02.315Z,9.20
2022-11-20T00:42:05.376Z,9.80
2022-11-20T00:47:09.669Z,9.00
2022-11-20T00:52:12.451Z,8.60
2022-11-20T00:57:15.273Z,10.20
2022-11-20T01:02:19.492Z,9.80
2022-11-20T01:07:22.406Z,9.80
2022-11-20T01:12:25.200Z,9.00
2022-11-20T01:17:29.286Z,10.60
2022-11-20T01:22:32.025Z,8.40
2022-11-20T01:27:34.925Z,9.00
2022-11-20T01:32:38.999Z,8.80
2022-11-20T01:37:41.763Z,9.00
2022-11-20T01:43:04.997Z,8.00
2022-11-20T01:48:09.192Z,8.00
2022-11-20T01:53:13.260Z,7.40
2022-11-20T01:58:16.294Z,8.60
2022-11-20T02:03:20.768Z,7.40
2022-11-20T02:08:23.583Z,8.00
2022-11-20T02:13:43.658Z,7.80
2022-11-20T02:18:47.774Z,8.60
2022-11-20T02:24:03.787Z,8.20
2022-11-20T02:29:06.544Z,8.00
2022-11-20T02:34:09.314Z,7.60
2022-11-20T02:39:14.100Z,8.00
2022-11-20T02:44:16.852Z,8.00
2022-11-20T02:49:20.199Z,7.00
2022-11-20T02:54:24.764Z,7.00
2022-11-20T02:59:27.558Z,8.00
2022-11-20T03:04:30.426Z,7.40
2022-11-20T03:09:34.606Z,7.00
2022-11-20T03:14:37.366Z,7.80
2022-11-20T03:19:40.146Z,7.20
2022-11-20T03:24:44.332Z,7.80
2022-11-20T03:29:47.150Z,7.00
2022-11-20T03:34:49.940Z,7.20
2022-11-20T03:39:54.067Z,7.60
2022-11-20T03:44:57.033Z,7.60
2022-11-20T03:50:00.026Z,6.40
2022-11-20T03:55:04.377Z,7.00
2022-11-20T04:00:08.591Z,7.00
2022-11-20T04:05:11.361Z,6.40
2022-11-20T04:10:15.602Z,7.00
2022-11-20T04:15:19.213Z,7.40
2022-11-20T04:20:22.337Z,7.00
2022-11-20T04:25:26.522Z,8.20
2022-11-20T04:30:29.649Z,7.00
2022-11-20T04:35:32.445Z,8.60
2022-11-20T04:40:36.577Z,7.00
2022-11-20T04:45:39.564Z,7.80
2022-11-20T04:50:42.399Z,7.00
2022-11-20T04:55:46.712Z,7.00
2022-11-20T05:00:52.640Z,5.80
2022-11-20T05:05:55.493Z,7.00
2022-11-20T05:11:03.213Z,7.00
2022-11-20T05:16:06.937Z,7.00
2022-11-20T05:21:10.250Z,7.00
2022-11-20T05:26:16.594Z,6.80
2022-11-20T05:31:26.210Z,6.00
2022-11-20T05:36:29.725Z,6.00
2022-11-20T05:41:34.833Z,6.00
2022-11-20T05:46:37.816Z,7.00
2022-11-20T05:51:40.731Z,6.00
2022-11-20T05:56:45.051Z,7.00
2022-11-20T06:01:47.812Z,6.40
2022-11-20T06:06:50.591Z,6.00
2022-11-20T06:11:54.689Z,7.00
2022-11-20T06:16:57.456Z,6.00
2022-11-20T06:22:00.212Z,6.00
2022-11-20T06:27:04.364Z,6.00
2022-11-20T06:32:07.259Z,6.00
2022-11-20T06:37:10.105Z,6.80
2022-11-20T06:42:14.299Z,6.20
2022-11-20T06:47:17.100Z,6.00
2022-11-20T06:52:20.164Z,6.00
2022-11-20T06:57:24.313Z,6.00
2022-11-20T07:02:27.124Z,6.00
2022-11-20T07:07:29.888Z,6.20
2022-11-20T07:12:34.012Z,6.00
2022-11-20T07:17:36.825Z,5.40
2022-11-20T07:22:39.630Z,6.00
2022-11-20T07:27:43.753Z,5.40
2022-11-20T07:32:48.485Z,6.00
2022-11-20T07:37:51.316Z,6.00
2022-11-20T07:42:56.091Z,6.00
2022-11-20T07:47:59.083Z,6.00
2022-11-20T07:53:05.513Z,6.00
2022-11-20T07:58:09.625Z,5.20
2022-11-20T08:03:12.360Z,6.00
2022-11-20T08:08:15.118Z,6.20
2022-11-20T08:13:35.740Z,5.80
2022-11-20T08:18:38.539Z,6.80
2022-11-20T08:23:41.272Z,5.80
2022-11-20T08:28:46.149Z,7.80
2022-11-20T08:33:48.900Z,7.80
2022-11-20T08:38:52.108Z,6.00
2022-11-20T08:43:57.931Z,18.00
2022-11-20T08:49:00.882Z,19.00
2022-11-20T08:54:04.068Z,23.75
2022-11-20T08:59:44.102Z,18.25
2022-11-20T09:04:30.919Z,17.75
2022-11-20T09:09:33.660Z,14.20
2022-11-20T09:14:37.727Z,15.00
2022-11-20T09:19:40.480Z,12.00
2022-11-20T09:24:43.732Z,13.60
2022-11-20T09:29:47.831Z,12.00
2022-11-20T09:34:50.582Z,12.00
2022-11-20T09:39:53.372Z,12.00
2022-11-20T09:45:04.416Z,12.40
2022-11-20T09:50:21.540Z,11.00
2022-11-20T09:55:24.395Z,12.00
2022-11-20T10:00:28.581Z,10.20
2022-11-20T10:05:33.569Z,10.80
2022-11-20T10:10:42.699Z,9.80
2022-11-20T10:15:55.448Z,10.00
2022-11-20T10:21:00.432Z,10.00
2022-11-20T10:26:04.349Z,10.40
2022-11-20T10:31:10.699Z,10.00
2022-11-20T10:36:16.890Z,9.20
2022-11-20T10:41:30.886Z,10.00
2022-11-20T10:46:40.223Z,9.00
2022-11-20T10:51:49.712Z,9.20
2022-11-20T10:56:53.241Z,9.20
2022-11-20T11:01:57.347Z,9.20
2022-11-20T11:07:04.952Z,9.00
2022-11-20T11:12:09.334Z,9.60
2022-11-20T11:17:27.869Z,9.20
2022-11-20T11:22:31.070Z,9.00
2022-11-20T11:27:34.271Z,7.40
2022-11-20T11:32:38.407Z,8.20
2022-11-20T11:37:41.239Z,7.20
2022-11-20T11:42:44.194Z,7.80
2022-11-20T11:47:49.275Z,7.40
2022-11-20T11:53:07.712Z,7.00
2022-11-20T11:58:20.481Z,10.20
2022-11-20T12:03:27.522Z,15.00
2022-11-20T12:08:33.571Z,15.75
2022-11-20T12:13:41.948Z,17.33
2022-11-20T12:18:46.432Z,18.20
2022-11-20T12:24:09.008Z,15.25
2022-11-20T12:29:13.653Z,18.00
2022-11-20T12:34:32.050Z,15.20
2022-11-20T12:39:36.865Z,14.40
2022-11-20T12:45:05.616Z,12.00
2022-11-20T12:50:12.541Z,12.80
2022-11-20T12:55:18.735Z,13.80
2022-11-20T13:00:22.219Z,12.00
2022-11-20T13:05:31.578Z,12.40
2022-11-20T13:10:37.575Z,12.00
2022-11-20T13:15:49.782Z,11.20
2022-11-20T13:20:54.159Z,12.00
2022-11-20T13:26:07.644Z,9.00
2022-11-20T13:31:12.131Z,10.00
2022-11-20T13:36:24.543Z,8.40
2022-11-20T13:41:32.234Z,7.00
2022-11-20T13:46:39.025Z,8.00
2022-11-20T13:51:45.629Z,8.40
2022-11-20T13:56:54.073Z,8.80
2022-11-20T14:01:56.843Z,8.00
2022-11-20T14:07:01.010Z,7.00
2022-11-20T14:12:04.719Z,7.20
2022-11-20T14:17:08.353Z,7.20
2022-11-20T14:22:20.968Z,6.60
2022-11-20T14:27:23.842Z,7.00
2022-11-20T14:32:28.640Z,7.20
2022-11-20T14:37:34.707Z,7.00
2022-11-20T14:42:38.432Z,5.00
2022-11-20T14:47:41.184Z,5.00
2022-11-20T14:52:53.666Z,6.00
2022-11-20T14:57:57.138Z,6.00
2022-11-20T15:02:59.884Z,6.00
2022-11-20T15:08:13.050Z,6.80
2022-11-20T15:13:17.034Z,6.00
2022-11-20T15:18:20.653Z,5.80
2022-11-20T15:23:25.149Z,5.00
2022-11-20T15:28:31.255Z,4.20
2022-11-20T15:33:34.266Z,4.80
2022-11-20T15:38:38.681Z,4.20
2022-11-20T15:43:41.564Z,4.00
2022-11-20T15:48:48.344Z,6.00
2022-11-20T15:53:52.866Z,4.00
2022-11-20T15:58:55.734Z,4.00
2022-11-20T16:03:58.479Z,4.00
2022-11-20T16:09:02.619Z,3.60
2022-11-20T16:14:22.864Z,4.00
2022-11-20T16:19:25.849Z,4.00
2022-11-20T16:24:30.041Z,4.00
2022-11-20T16:29:32.835Z,4.40
2022-11-20T16:34:35.580Z,4.00
2022-11-20T16:39:39.721Z,5.20
2022-11-20T16:44:42.502Z,4.00
2022-11-20T16:49:45.250Z,4.00
2022-11-20T16:54:49.419Z,3.00
2022-11-20T16:59:52.192Z,3.00
2022-11-20T17:04:54.952Z,3.00
2022-11-20T17:09:59.103Z,3.00
2022-11-20T17:15:01.893Z,3.20
2022-11-20T17:20:05.191Z,3.00
2022-11-20T17:25:09.983Z,3.60
2022-11-20T17:30:13.143Z,4.20
2022-11-20T17:35:16.085Z,3.20
2022-11-20T17:40:24.534Z,3.00
2022-11-20T17:45:30.069Z,4.00
2022-11-20T17:50:32.937Z,4.00
2022-11-20T17:55:55.925Z,4.00
2022-11-20T18:01:05.926Z,6.00
2022-11-20T18:06:11.992Z,6.00
2022-11-20T18:11:17.087Z,6.00
2022-11-20T18:16:19.839Z,6.80
2022-11-20T18:21:22.710Z,5.80
2022-11-20T18:26:27.048Z,7.80
2022-11-20T18:31:29.850Z,9.80
2022-11-20T18:36:33.381Z,12.40
2022-11-20T18:41:54.908Z,14.00
2022-11-20T18:46:57.689Z,15.60
2022-11-20T18:52:00.481Z,15.60
2022-11-20T18:57:04.880Z,16.00
2022-11-20T19:02:07.825Z,16.50
2022-11-20T19:07:12.264Z,19.00
2022-11-20T19:12:16.744Z,20.00
2022-11-20T19:17:19.745Z,20.50
2022-11-20T19:22:22.781Z,20.50
2022-11-20T19:27:27.360Z,20.50
2022-11-20T19:32:32.609Z,21.75
2022-11-20T19:37:35.657Z,21.50
2022-11-20T19:42:40.146Z,22.50
2022-11-20T19:53:07.354Z,21.00
2022-11-20T19:58:11.665Z,21.00
2022-11-20T20:03:14.446Z,21.25
2022-11-20T20:08:17.301Z,23.25
2022-11-20T20:13:21.424Z,21.75
2022-11-20T20:18:24.180Z,23.00
2022-11-20T20:23:27.020Z,21.50
2022-11-20T20:28:31.245Z,22.00
2022-11-20T20:33:34.310Z,22.75
2022-11-20T20:38:37.436Z,21.00
2022-11-20T20:43:58.851Z,23.75
2022-11-20T20:49:01.634Z,20.00
2022-11-20T20:54:04.465Z,21.25
2022-11-20T20:59:08.603Z,20.75
2022-11-20T21:04:11.844Z,20.50
2022-11-20T21:09:14.861Z,19.75
2022-11-20T21:14:19.450Z,19.00
2022-11-20T21:19:22.269Z,21.00
2022-11-20T21:24:25.465Z,20.00
2022-11-20T21:29:31.073Z,19.75
2022-11-20T21:34:33.868Z,18.75
2022-11-20T21:39:50.476Z,19.00
2022-11-20T21:44:54.698Z,19.00
2022-11-20T21:49:57.461Z,17.67
2022-11-20T21:55:00.291Z,19.00
2022-11-20T22:00:05.307Z,18.75
2022-11-20T22:05:13.036Z,17.50
2022-11-20T22:10:18.673Z,19.75
2022-11-20T22:15:45.756Z,19.00
2022-11-20T22:20:45.825Z,17.40
2022-11-20T22:25:48.704Z,17.75
2022-11-20T22:30:52.915Z,18.75
2022-11-20T22:36:01.168Z,16.75
2022-11-20T22:41:04.502Z,17.00
2022-11-20T22:46:09.372Z,16.00
2022-11-20T22:51:13.768Z,17.75
2022-11-20T22:56:16.775Z,16.00
2022-11-20T23:01:21.559Z,18.25
2022-11-20T23:06:24.688Z,16.75
2022-11-20T23:11:28.449Z,15.75
2022-11-20T23:16:32.736Z,14.00
2022-11-20T23:21:35.982Z,16.50
2022-11-20T23:26:39.824Z,15.00
2022-11-20T23:31:44.280Z,14.25
2022-11-20T23:36:47.022Z,14.20
2022-11-20T23:41:49.775Z,16.00
2022-11-20T23:46:53.871Z,14.40
2022-11-20T23:51:56.807Z,15.00
2022-11-20T23:56:59.937Z,14.40
